sensor_id;sensor_type;location;lat;lon;timestamp;P1;durP1;ratioP1;P2;durP2;ratioP2
13607;SDS011;6875;50.852;5.672;2023-06-14T00:01:34;8.93;;;3.57;;
13607;SDS011;6875;50.852;5.672;2023-06-14T00:04:00;4.77;;;2.93;;
13607;SDS011;6875;50.852;5.672;2023-06-14T00:06:28;4.67;;;2.97;;
13607;SDS011;6875;50.852;5.672;2023-06-14T00:08:55;8.57;;;3.20;;
13607;SDS011;6875;50.852;5.672;2023-06-14T00:11:22;6.43;;;2.83;;
13607;SDS011;6875;50.852;5.672;2023-06-14T00:13:48;5.17;;;2.70;;
13607;SDS011;6875;50.852;5.672;2023-06-14T00:16:15;7.23;;;3.13;;
13607;SDS011;6875;50.852;5.672;2023-06-14T00:18:44;7.33;;;3.23;;
13607;SDS011;6875;50.852;5.672;2023-06-14T00:21:11;5.73;;;3.10;;
13607;SDS011;6875;50.852;5.672;2023-06-14T00:23:38;6.87;;;3.30;;
13607;SDS011;6875;50.852;5.672;2023-06-14T00:26:04;2.73;;;2.53;;
13607;SDS011;6875;50.852;5.672;2023-06-14T00:28:31;4.30;;;3.40;;
13607;SDS011;6875;50.852;5.672;2023-06-14T00:30:57;4.47;;;3.07;;
13607;SDS011;6875;50.852;5.672;2023-06-14T00:33:24;5.00;;;2.73;;
13607;SDS011;6875;50.852;5.672;2023-06-14T00:35:52;4.43;;;3.33;;
13607;SDS011;6875;50.852;5.672;2023-06-14T00:38:19;6.00;;;3.30;;
13607;SDS011;6875;50.852;5.672;2023-06-14T00:40:46;7.53;;;2.97;;
13607;SDS011;6875;50.852;5.672;2023-06-14T00:43:12;8.00;;;4.07;;
13607;SDS011;6875;50.852;5.672;2023-06-14T00:45:41;7.10;;;3.13;;
13607;SDS011;6875;50.852;5.672;2023-06-14T00:48:07;5.33;;;3.07;;
13607;SDS011;6875;50.852;5.672;2023-06-14T00:50:34;4.63;;;2.70;;
13607;SDS011;6875;50.852;5.672;2023-06-14T00:53:02;4.40;;;3.00;;
13607;SDS011;6875;50.852;5.672;2023-06-14T00:55:29;4.73;;;3.10;;
13607;SDS011;6875;50.852;5.672;2023-06-14T00:57:58;7.90;;;3.07;;
13607;SDS011;6875;50.852;5.672;2023-06-14T01:00:27;7.37;;;2.93;;
13607;SDS011;6875;50.852;5.672;2023-06-14T01:03:11;6.50;;;3.03;;
13607;SDS011;6875;50.852;5.672;2023-06-14T01:05:39;10.83;;;3.00;;
13607;SDS011;6875;50.852;5.672;2023-06-14T01:08:14;7.40;;;3.13;;
13607;SDS011;6875;50.852;5.672;2023-06-14T01:10:45;5.37;;;3.23;;
13607;SDS011;6875;50.852;5.672;2023-06-14T01:13:19;5.37;;;3.10;;
13607;SDS011;6875;50.852;5.672;2023-06-14T01:15:47;6.13;;;3.17;;
13607;SDS011;6875;50.852;5.672;2023-06-14T01:18:14;3.73;;;3.10;;
13607;SDS011;6875;50.852;5.672;2023-06-14T01:20:43;5.83;;;2.93;;
13607;SDS011;6875;50.852;5.672;2023-06-14T01:23:15;4.83;;;3.27;;
13607;SDS011;6875;50.852;5.672;2023-06-14T01:25:42;6.10;;;3.17;;
13607;SDS011;6875;50.852;5.672;2023-06-14T01:28:10;7.50;;;2.87;;
13607;SDS011;6875;50.852;5.672;2023-06-14T01:30:38;3.07;;;2.77;;
13607;SDS011;6875;50.852;5.672;2023-06-14T01:33:09;6.37;;;2.90;;
13607;SDS011;6875;50.852;5.672;2023-06-14T01:35:37;6.73;;;3.07;;
13607;SDS011;6875;50.852;5.672;2023-06-14T01:38:04;6.87;;;3.20;;
13607;SDS011;6875;50.852;5.672;2023-06-14T01:40:32;4.60;;;3.10;;
13607;SDS011;6875;50.852;5.672;2023-06-14T01:42:59;5.43;;;2.80;;
13607;SDS011;6875;50.852;5.672;2023-06-14T01:45:27;6.80;;;3.10;;
13607;SDS011;6875;50.852;5.672;2023-06-14T01:47:55;4.97;;;3.17;;
13607;SDS011;6875;50.852;5.672;2023-06-14T01:50:22;8.93;;;2.80;;
13607;SDS011;6875;50.852;5.672;2023-06-14T01:52:48;7.63;;;3.13;;
13607;SDS011;6875;50.852;5.672;2023-06-14T01:55:15;5.03;;;2.90;;
13607;SDS011;6875;50.852;5.672;2023-06-14T01:57:44;5.57;;;3.10;;
13607;SDS011;6875;50.852;5.672;2023-06-14T02:00:11;4.33;;;3.30;;
13607;SDS011;6875;50.852;5.672;2023-06-14T02:02:39;5.97;;;3.17;;
13607;SDS011;6875;50.852;5.672;2023-06-14T02:05:06;8.23;;;3.60;;
13607;SDS011;6875;50.852;5.672;2023-06-14T02:07:34;7.03;;;2.90;;
13607;SDS011;6875;50.852;5.672;2023-06-14T02:10:00;7.20;;;3.27;;
13607;SDS011;6875;50.852;5.672;2023-06-14T02:12:27;3.83;;;2.97;;
13607;SDS011;6875;50.852;5.672;2023-06-14T02:14:55;4.23;;;2.70;;
13607;SDS011;6875;50.852;5.672;2023-06-14T02:17:23;4.47;;;2.97;;
13607;SDS011;6875;50.852;5.672;2023-06-14T02:19:50;8.90;;;3.40;;
13607;SDS011;6875;50.852;5.672;2023-06-14T02:22:17;7.33;;;3.13;;
13607;SDS011;6875;50.852;5.672;2023-06-14T02:24:45;5.73;;;2.93;;
13607;SDS011;6875;50.852;5.672;2023-06-14T02:27:12;5.97;;;3.33;;
13607;SDS011;6875;50.852;5.672;2023-06-14T02:29:39;7.37;;;3.50;;
13607;SDS011;6875;50.852;5.672;2023-06-14T02:32:07;9.97;;;3.07;;
13607;SDS011;6875;50.852;5.672;2023-06-14T02:34:34;4.93;;;2.80;;
13607;SDS011;6875;50.852;5.672;2023-06-14T02:37:00;7.83;;;3.10;;
13607;SDS011;6875;50.852;5.672;2023-06-14T02:39:28;8.43;;;3.10;;
13607;SDS011;6875;50.852;5.672;2023-06-14T02:41:55;6.57;;;2.93;;
13607;SDS011;6875;50.852;5.672;2023-06-14T02:44:23;9.33;;;2.90;;
13607;SDS011;6875;50.852;5.672;2023-06-14T02:46:51;9.27;;;3.13;;
13607;SDS011;6875;50.852;5.672;2023-06-14T02:49:19;4.13;;;2.60;;
13607;SDS011;6875;50.852;5.672;2023-06-14T02:51:46;5.57;;;3.17;;
13607;SDS011;6875;50.852;5.672;2023-06-14T02:54:12;5.50;;;3.10;;
13607;SDS011;6875;50.852;5.672;2023-06-14T02:56:39;6.10;;;2.90;;
13607;SDS011;6875;50.852;5.672;2023-06-14T02:59:06;5.60;;;3.13;;
13607;SDS011;6875;50.852;5.672;2023-06-14T03:01:34;5.33;;;3.00;;
13607;SDS011;6875;50.852;5.672;2023-06-14T03:04:00;8.17;;;3.17;;
13607;SDS011;6875;50.852;5.672;2023-06-14T03:06:29;4.07;;;2.80;;
13607;SDS011;6875;50.852;5.672;2023-06-14T03:08:56;4.93;;;3.07;;
13607;SDS011;6875;50.852;5.672;2023-06-14T03:11:25;6.60;;;3.00;;
13607;SDS011;6875;50.852;5.672;2023-06-14T03:13:51;8.10;;;3.33;;
13607;SDS011;6875;50.852;5.672;2023-06-14T03:16:18;6.03;;;3.00;;
13607;SDS011;6875;50.852;5.672;2023-06-14T03:18:47;4.97;;;2.87;;
13607;SDS011;6875;50.852;5.672;2023-06-14T03:21:13;7.27;;;3.30;;
13607;SDS011;6875;50.852;5.672;2023-06-14T03:23:42;5.17;;;3.10;;
13607;SDS011;6875;50.852;5.672;2023-06-14T03:26:09;6.90;;;3.20;;
13607;SDS011;6875;50.852;5.672;2023-06-14T03:28:38;12.83;;;3.03;;
13607;SDS011;6875;50.852;5.672;2023-06-14T03:31:04;8.83;;;3.07;;
13607;SDS011;6875;50.852;5.672;2023-06-14T03:33:31;8.17;;;3.10;;
13607;SDS011;6875;50.852;5.672;2023-06-14T03:35:58;5.90;;;2.97;;
13607;SDS011;6875;50.852;5.672;2023-06-14T03:38:24;7.70;;;3.30;;
13607;SDS011;6875;50.852;5.672;2023-06-14T03:40:52;8.50;;;2.80;;
13607;SDS011;6875;50.852;5.672;2023-06-14T03:43:19;5.27;;;3.00;;
13607;SDS011;6875;50.852;5.672;2023-06-14T03:45:45;7.53;;;3.30;;
13607;SDS011;6875;50.852;5.672;2023-06-14T03:48:12;3.50;;;2.70;;
13607;SDS011;6875;50.852;5.672;2023-06-14T03:50:39;5.20;;;2.90;;
13607;SDS011;6875;50.852;5.672;2023-06-14T03:53:07;4.93;;;3.13;;
13607;SDS011;6875;50.852;5.672;2023-06-14T03:55:34;7.03;;;3.10;;
13607;SDS011;6875;50.852;5.672;2023-06-14T03:58:02;8.80;;;3.10;;
13607;SDS011;6875;50.852;5.672;2023-06-14T04:00:28;3.47;;;2.97;;
13607;SDS011;6875;50.852;5.672;2023-06-14T04:02:55;12.60;;;3.03;;
13607;SDS011;6875;50.852;5.672;2023-06-14T04:05:22;4.33;;;2.77;;
13607;SDS011;6875;50.852;5.672;2023-06-14T04:07:51;5.20;;;3.37;;
13607;SDS011;6875;50.852;5.672;2023-06-14T04:10:20;6.90;;;3.30;;
13607;SDS011;6875;50.852;5.672;2023-06-14T04:12:47;6.43;;;2.90;;
13607;SDS011;6875;50.852;5.672;2023-06-14T04:15:15;6.90;;;3.00;;
13607;SDS011;6875;50.852;5.672;2023-06-14T04:17:42;7.10;;;3.10;;
13607;SDS011;6875;50.852;5.672;2023-06-14T04:20:08;5.17;;;2.90;;
13607;SDS011;6875;50.852;5.672;2023-06-14T04:22:36;5.30;;;2.77;;
13607;SDS011;6875;50.852;5.672;2023-06-14T04:25:02;7.07;;;2.83;;
13607;SDS011;6875;50.852;5.672;2023-06-14T04:27:31;3.83;;;2.97;;
13607;SDS011;6875;50.852;5.672;2023-06-14T04:30:00;5.23;;;3.00;;
13607;SDS011;6875;50.852;5.672;2023-06-14T04:32:29;6.87;;;2.87;;
13607;SDS011;6875;50.852;5.672;2023-06-14T04:35:04;6.33;;;2.70;;
13607;SDS011;6875;50.852;5.672;2023-06-14T04:37:31;4.63;;;2.90;;
13607;SDS011;6875;50.852;5.672;2023-06-14T04:39:58;7.57;;;2.67;;
13607;SDS011;6875;50.852;5.672;2023-06-14T04:42:25;8.67;;;2.87;;
13607;SDS011;6875;50.852;5.672;2023-06-14T04:44:56;6.83;;;2.80;;
13607;SDS011;6875;50.852;5.672;2023-06-14T04:47:23;7.40;;;2.93;;
13607;SDS011;6875;50.852;5.672;2023-06-14T04:49:56;4.53;;;2.47;;
13607;SDS011;6875;50.852;5.672;2023-06-14T04:52:23;5.57;;;2.77;;
13607;SDS011;6875;50.852;5.672;2023-06-14T04:54:51;5.93;;;2.70;;
13607;SDS011;6875;50.852;5.672;2023-06-14T04:57:19;9.03;;;3.40;;
13607;SDS011;6875;50.852;5.672;2023-06-14T04:59:47;4.60;;;2.97;;
13607;SDS011;6875;50.852;5.672;2023-06-14T05:02:19;6.40;;;2.93;;
13607;SDS011;6875;50.852;5.672;2023-06-14T05:04:46;4.37;;;2.80;;
13607;SDS011;6875;50.852;5.672;2023-06-14T05:07:14;5.77;;;2.67;;
13607;SDS011;6875;50.852;5.672;2023-06-14T05:09:41;9.00;;;2.87;;
13607;SDS011;6875;50.852;5.672;2023-06-14T05:12:07;5.47;;;2.83;;
13607;SDS011;6875;50.852;5.672;2023-06-14T05:14:34;6.63;;;3.03;;
13607;SDS011;6875;50.852;5.672;2023-06-14T05:17:01;6.27;;;2.70;;
13607;SDS011;6875;50.852;5.672;2023-06-14T05:19:28;3.83;;;2.80;;
13607;SDS011;6875;50.852;5.672;2023-06-14T05:21:54;7.30;;;3.33;;
13607;SDS011;6875;50.852;5.672;2023-06-14T05:24:22;5.37;;;3.30;;
13607;SDS011;6875;50.852;5.672;2023-06-14T05:26:50;4.57;;;2.83;;
13607;SDS011;6875;50.852;5.672;2023-06-14T05:29:16;4.73;;;2.90;;
13607;SDS011;6875;50.852;5.672;2023-06-14T05:31:43;6.17;;;3.00;;
13607;SDS011;6875;50.852;5.672;2023-06-14T05:34:10;4.67;;;2.83;;
13607;SDS011;6875;50.852;5.672;2023-06-14T05:36:36;6.43;;;3.00;;
13607;SDS011;6875;50.852;5.672;2023-06-14T05:39:04;4.57;;;2.90;;
13607;SDS011;6875;50.852;5.672;2023-06-14T05:41:32;7.43;;;2.93;;
13607;SDS011;6875;50.852;5.672;2023-06-14T05:43:58;2.90;;;2.50;;
13607;SDS011;6875;50.852;5.672;2023-06-14T05:46:25;7.37;;;2.90;;
13607;SDS011;6875;50.852;5.672;2023-06-14T05:48:52;9.33;;;3.67;;
13607;SDS011;6875;50.852;5.672;2023-06-14T05:51:19;9.00;;;3.40;;
13607;SDS011;6875;50.852;5.672;2023-06-14T05:53:46;6.20;;;3.27;;
13607;SDS011;6875;50.852;5.672;2023-06-14T05:56:12;4.63;;;3.20;;
13607;SDS011;6875;50.852;5.672;2023-06-14T05:58:40;4.60;;;3.20;;
13607;SDS011;6875;50.852;5.672;2023-06-14T06:01:07;7.33;;;3.37;;
13607;SDS011;6875;50.852;5.672;2023-06-14T06:03:34;7.57;;;2.90;;
13607;SDS011;6875;50.852;5.672;2023-06-14T06:06:01;7.53;;;3.00;;
13607;SDS011;6875;50.852;5.672;2023-06-14T06:08:28;5.87;;;3.43;;
13607;SDS011;6875;50.852;5.672;2023-06-14T06:10:54;7.20;;;3.33;;
13607;SDS011;6875;50.852;5.672;2023-06-14T06:13:21;7.17;;;3.53;;
13607;SDS011;6875;50.852;5.672;2023-06-14T06:15:49;5.80;;;3.93;;
13607;SDS011;6875;50.852;5.672;2023-06-14T06:18:16;7.17;;;4.20;;
13607;SDS011;6875;50.852;5.672;2023-06-14T06:20:42;5.57;;;3.03;;
13607;SDS011;6875;50.852;5.672;2023-06-14T06:23:09;6.67;;;3.53;;
13607;SDS011;6875;50.852;5.672;2023-06-14T06:25:36;8.07;;;3.40;;
13607;SDS011;6875;50.852;5.672;2023-06-14T06:28:02;7.27;;;3.13;;
13607;SDS011;6875;50.852;5.672;2023-06-14T06:30:29;4.73;;;3.33;;
13607;SDS011;6875;50.852;5.672;2023-06-14T06:32:57;6.27;;;2.83;;
13607;SDS011;6875;50.852;5.672;2023-06-14T06:35:24;7.07;;;3.30;;
13607;SDS011;6875;50.852;5.672;2023-06-14T06:37:51;6.33;;;3.00;;
13607;SDS011;6875;50.852;5.672;2023-06-14T06:40:17;4.67;;;2.77;;
13607;SDS011;6875;50.852;5.672;2023-06-14T06:42:44;6.33;;;3.17;;
13607;SDS011;6875;50.852;5.672;2023-06-14T06:45:11;5.97;;;3.20;;
13607;SDS011;6875;50.852;5.672;2023-06-14T06:47:38;5.00;;;2.73;;
13607;SDS011;6875;50.852;5.672;2023-06-14T06:50:06;6.97;;;3.27;;
13607;SDS011;6875;50.852;5.672;2023-06-14T06:52:34;4.27;;;2.90;;
13607;SDS011;6875;50.852;5.672;2023-06-14T06:55:00;7.67;;;3.10;;
13607;SDS011;6875;50.852;5.672;2023-06-14T06:57:27;9.23;;;3.03;;
13607;SDS011;6875;50.852;5.672;2023-06-14T06:59:54;4.70;;;3.00;;
13607;SDS011;6875;50.852;5.672;2023-06-14T07:02:20;9.20;;;3.30;;
13607;SDS011;6875;50.852;5.672;2023-06-14T07:04:47;3.90;;;2.57;;
13607;SDS011;6875;50.852;5.672;2023-06-14T07:07:16;6.43;;;3.27;;
13607;SDS011;6875;50.852;5.672;2023-06-14T07:09:42;5.70;;;3.50;;
13607;SDS011;6875;50.852;5.672;2023-06-14T07:12:09;8.53;;;3.27;;
13607;SDS011;6875;50.852;5.672;2023-06-14T07:14:36;6.90;;;3.20;;
13607;SDS011;6875;50.852;5.672;2023-06-14T07:17:03;11.50;;;2.90;;
13607;SDS011;6875;50.852;5.672;2023-06-14T07:19:31;8.37;;;3.20;;
13607;SDS011;6875;50.852;5.672;2023-06-14T07:21:58;7.87;;;3.33;;
13607;SDS011;6875;50.852;5.672;2023-06-14T07:24:26;7.73;;;3.50;;
13607;SDS011;6875;50.852;5.672;2023-06-14T07:26:53;3.90;;;3.20;;
13607;SDS011;6875;50.852;5.672;2023-06-14T07:29:21;8.87;;;2.90;;
13607;SDS011;6875;50.852;5.672;2023-06-14T07:31:47;8.00;;;3.23;;
13607;SDS011;6875;50.852;5.672;2023-06-14T07:34:14;8.07;;;2.80;;
13607;SDS011;6875;50.852;5.672;2023-06-14T07:36:41;6.30;;;3.30;;
13607;SDS011;6875;50.852;5.672;2023-06-14T07:39:09;5.97;;;2.77;;
13607;SDS011;6875;50.852;5.672;2023-06-14T07:41:37;8.90;;;3.10;;
13607;SDS011;6875;50.852;5.672;2023-06-14T07:44:04;7.57;;;3.00;;
13607;SDS011;6875;50.852;5.672;2023-06-14T07:46:30;5.43;;;2.87;;
13607;SDS011;6875;50.852;5.672;2023-06-14T07:48:57;5.87;;;2.93;;
13607;SDS011;6875;50.852;5.672;2023-06-14T07:51:24;3.97;;;2.80;;
13607;SDS011;6875;50.852;5.672;2023-06-14T07:53:50;9.37;;;3.37;;
13607;SDS011;6875;50.852;5.672;2023-06-14T07:56:17;11.47;;;3.00;;
13607;SDS011;6875;50.852;5.672;2023-06-14T07:58:45;6.67;;;3.07;;
13607;SDS011;6875;50.852;5.672;2023-06-14T08:01:11;6.53;;;3.13;;
13607;SDS011;6875;50.852;5.672;2023-06-14T08:03:38;7.40;;;2.80;;
13607;SDS011;6875;50.852;5.672;2023-06-14T08:06:05;8.40;;;2.60;;
13607;SDS011;6875;50.852;5.672;2023-06-14T08:08:32;5.23;;;2.80;;
13607;SDS011;6875;50.852;5.672;2023-06-14T08:10:59;6.93;;;2.50;;
13607;SDS011;6875;50.852;5.672;2023-06-14T08:13:26;4.80;;;2.40;;
13607;SDS011;6875;50.852;5.672;2023-06-14T08:15:54;5.67;;;2.73;;
13607;SDS011;6875;50.852;5.672;2023-06-14T08:18:22;5.57;;;2.63;;
13607;SDS011;6875;50.852;5.672;2023-06-14T08:20:49;4.27;;;2.43;;
13607;SDS011;6875;50.852;5.672;2023-06-14T08:23:17;8.10;;;2.50;;
13607;SDS011;6875;50.852;5.672;2023-06-14T08:25:46;4.00;;;2.80;;
13607;SDS011;6875;50.852;5.672;2023-06-14T08:28:12;7.13;;;2.87;;
13607;SDS011;6875;50.852;5.672;2023-06-14T08:30:39;6.43;;;2.60;;
13607;SDS011;6875;50.852;5.672;2023-06-14T08:33:07;4.30;;;2.50;;
13607;SDS011;6875;50.852;5.672;2023-06-14T08:35:34;4.90;;;2.43;;
13607;SDS011;6875;50.852;5.672;2023-06-14T08:38:02;8.60;;;2.60;;
13607;SDS011;6875;50.852;5.672;2023-06-14T08:40:29;5.73;;;2.50;;
13607;SDS011;6875;50.852;5.672;2023-06-14T08:42:56;4.47;;;2.37;;
13607;SDS011;6875;50.852;5.672;2023-06-14T08:45:23;3.03;;;1.90;;
13607;SDS011;6875;50.852;5.672;2023-06-14T08:47:51;6.13;;;2.60;;
13607;SDS011;6875;50.852;5.672;2023-06-14T08:50:24;4.53;;;2.17;;
13607;SDS011;6875;50.852;5.672;2023-06-14T08:52:55;4.17;;;2.00;;
13607;SDS011;6875;50.852;5.672;2023-06-14T08:55:22;3.77;;;2.20;;
13607;SDS011;6875;50.852;5.672;2023-06-14T08:57:50;6.37;;;2.30;;
13607;SDS011;6875;50.852;5.672;2023-06-14T09:00:18;5.67;;;2.00;;
13607;SDS011;6875;50.852;5.672;2023-06-14T09:02:46;2.70;;;2.00;;
13607;SDS011;6875;50.852;5.672;2023-06-14T09:05:13;2.83;;;1.70;;
13607;SDS011;6875;50.852;5.672;2023-06-14T09:07:44;5.03;;;2.00;;
13607;SDS011;6875;50.852;5.672;2023-06-14T09:10:14;6.07;;;2.03;;
13607;SDS011;6875;50.852;5.672;2023-06-14T09:12:42;6.27;;;1.80;;
13607;SDS011;6875;50.852;5.672;2023-06-14T09:15:09;2.87;;;1.80;;
13607;SDS011;6875;50.852;5.672;2023-06-14T09:17:35;2.10;;;1.90;;
13607;SDS011;6875;50.852;5.672;2023-06-14T09:20:03;2.83;;;1.70;;
13607;SDS011;6875;50.852;5.672;2023-06-14T09:22:34;1.77;;;1.67;;
13607;SDS011;6875;50.852;5.672;2023-06-14T09:25:02;4.30;;;1.80;;
13607;SDS011;6875;50.852;5.672;2023-06-14T09:27:30;4.07;;;1.60;;
13607;SDS011;6875;50.852;5.672;2023-06-14T09:29:56;2.27;;;1.47;;
13607;SDS011;6875;50.852;5.672;2023-06-14T09:32:23;5.00;;;1.50;;
13607;SDS011;6875;50.852;5.672;2023-06-14T09:34:50;5.10;;;1.50;;
13607;SDS011;6875;50.852;5.672;2023-06-14T09:37:26;3.67;;;1.70;;
13607;SDS011;6875;50.852;5.672;2023-06-14T09:39:54;5.47;;;1.40;;
13607;SDS011;6875;50.852;5.672;2023-06-14T09:42:22;2.03;;;1.30;;
13607;SDS011;6875;50.852;5.672;2023-06-14T09:44:51;4.73;;;1.53;;
13607;SDS011;6875;50.852;5.672;2023-06-14T09:47:19;3.27;;;1.20;;
13607;SDS011;6875;50.852;5.672;2023-06-14T09:49:45;3.80;;;1.30;;
13607;SDS011;6875;50.852;5.672;2023-06-14T09:52:14;4.17;;;1.30;;
13607;SDS011;6875;50.852;5.672;2023-06-14T09:54:42;6.30;;;1.17;;
13607;SDS011;6875;50.852;5.672;2023-06-14T09:57:11;1.53;;;1.13;;
13607;SDS011;6875;50.852;5.672;2023-06-14T09:59:41;2.43;;;1.43;;
13607;SDS011;6875;50.852;5.672;2023-06-14T10:02:10;1.70;;;1.40;;
13607;SDS011;6875;50.852;5.672;2023-06-14T10:04:39;2.63;;;1.33;;
13607;SDS011;6875;50.852;5.672;2023-06-14T10:07:08;1.73;;;1.30;;
13607;SDS011;6875;50.852;5.672;2023-06-14T10:09:35;1.30;;;1.20;;
13607;SDS011;6875;50.852;5.672;2023-06-14T10:12:02;2.20;;;1.57;;
13607;SDS011;6875;50.852;5.672;2023-06-14T10:14:30;3.90;;;1.43;;
13607;SDS011;6875;50.852;5.672;2023-06-14T10:17:00;2.57;;;1.50;;
13607;SDS011;6875;50.852;5.672;2023-06-14T10:19:32;4.97;;;1.60;;
13607;SDS011;6875;50.852;5.672;2023-06-14T10:22:01;2.40;;;1.50;;
13607;SDS011;6875;50.852;5.672;2023-06-14T10:24:30;3.50;;;1.37;;
13607;SDS011;6875;50.852;5.672;2023-06-14T10:27:00;4.00;;;1.90;;
13607;SDS011;6875;50.852;5.672;2023-06-14T10:29:27;6.43;;;1.80;;
13607;SDS011;6875;50.852;5.672;2023-06-14T10:31:57;5.23;;;3.30;;
13607;SDS011;6875;50.852;5.672;2023-06-14T10:34:27;3.67;;;2.73;;
13607;SDS011;6875;50.852;5.672;2023-06-14T10:37:00;4.57;;;2.07;;
13607;SDS011;6875;50.852;5.672;2023-06-14T10:39:28;4.10;;;1.70;;
13607;SDS011;6875;50.852;5.672;2023-06-14T10:41:56;1.50;;;1.40;;
13607;SDS011;6875;50.852;5.672;2023-06-14T10:44:33;2.50;;;1.60;;
13607;SDS011;6875;50.852;5.672;2023-06-14T10:47:06;2.53;;;1.50;;
13607;SDS011;6875;50.852;5.672;2023-06-14T10:49:38;5.57;;;2.00;;
13607;SDS011;6875;50.852;5.672;2023-06-14T10:52:08;1.83;;;1.30;;
13607;SDS011;6875;50.852;5.672;2023-06-14T10:54:54;2.23;;;1.63;;
13607;SDS011;6875;50.852;5.672;2023-06-14T10:57:22;3.63;;;1.50;;
13607;SDS011;6875;50.852;5.672;2023-06-14T10:59:49;4.53;;;1.70;;
13607;SDS011;6875;50.852;5.672;2023-06-14T11:02:20;3.90;;;1.60;;
13607;SDS011;6875;50.852;5.672;2023-06-14T11:05:13;2.13;;;1.67;;
13607;SDS011;6875;50.852;5.672;2023-06-14T11:07:43;5.37;;;1.43;;
13607;SDS011;6875;50.852;5.672;2023-06-14T11:10:20;4.30;;;1.60;;
13607;SDS011;6875;50.852;5.672;2023-06-14T11:12:53;3.10;;;1.53;;
13607;SDS011;6875;50.852;5.672;2023-06-14T11:15:22;4.20;;;1.70;;
13607;SDS011;6875;50.852;5.672;2023-06-14T11:17:54;4.83;;;1.43;;
13607;SDS011;6875;50.852;5.672;2023-06-14T11:20:26;2.33;;;1.27;;
13607;SDS011;6875;50.852;5.672;2023-06-14T11:22:53;4.20;;;1.57;;
13607;SDS011;6875;50.852;5.672;2023-06-14T11:25:20;2.57;;;1.57;;
13607;SDS011;6875;50.852;5.672;2023-06-14T11:27:48;2.63;;;1.40;;
13607;SDS011;6875;50.852;5.672;2023-06-14T11:30:16;4.40;;;1.83;;
13607;SDS011;6875;50.852;5.672;2023-06-14T11:32:45;3.40;;;1.50;;
13607;SDS011;6875;50.852;5.672;2023-06-14T11:35:12;1.77;;;1.37;;
13607;SDS011;6875;50.852;5.672;2023-06-14T11:37:40;2.07;;;1.50;;
13607;SDS011;6875;50.852;5.672;2023-06-14T11:40:08;2.57;;;1.67;;
13607;SDS011;6875;50.852;5.672;2023-06-14T11:42:37;3.93;;;1.40;;
13607;SDS011;6875;50.852;5.672;2023-06-14T11:45:05;3.00;;;1.50;;
13607;SDS011;6875;50.852;5.672;2023-06-14T11:47:34;2.63;;;1.43;;
13607;SDS011;6875;50.852;5.672;2023-06-14T11:50:01;3.40;;;1.30;;
13607;SDS011;6875;50.852;5.672;2023-06-14T11:52:29;2.40;;;1.40;;
13607;SDS011;6875;50.852;5.672;2023-06-14T11:54:58;3.80;;;1.37;;
13607;SDS011;6875;50.852;5.672;2023-06-14T11:57:24;3.80;;;1.33;;
13607;SDS011;6875;50.852;5.672;2023-06-14T11:59:51;3.00;;;1.33;;
13607;SDS011;6875;50.852;5.672;2023-06-14T12:02:18;3.40;;;1.30;;
13607;SDS011;6875;50.852;5.672;2023-06-14T12:04:46;2.40;;;1.50;;
13607;SDS011;6875;50.852;5.672;2023-06-14T12:07:14;3.77;;;1.67;;
13607;SDS011;6875;50.852;5.672;2023-06-14T12:09:42;2.63;;;1.50;;
13607;SDS011;6875;50.852;5.672;2023-06-14T12:12:11;2.37;;;1.60;;
13607;SDS011;6875;50.852;5.672;2023-06-14T12:14:40;5.30;;;1.80;;
13607;SDS011;6875;50.852;5.672;2023-06-14T12:17:07;2.87;;;1.90;;
13607;SDS011;6875;50.852;5.672;2023-06-14T12:19:41;3.87;;;1.50;;
13607;SDS011;6875;50.852;5.672;2023-06-14T12:22:09;3.23;;;1.37;;
13607;SDS011;6875;50.852;5.672;2023-06-14T12:24:36;3.53;;;1.60;;
13607;SDS011;6875;50.852;5.672;2023-06-14T12:27:03;3.30;;;1.60;;
13607;SDS011;6875;50.852;5.672;2023-06-14T12:29:31;2.03;;;1.47;;
13607;SDS011;6875;50.852;5.672;2023-06-14T12:31:58;4.30;;;1.30;;
13607;SDS011;6875;50.852;5.672;2023-06-14T12:34:25;5.10;;;1.43;;
13607;SDS011;6875;50.852;5.672;2023-06-14T12:36:52;2.60;;;1.40;;
13607;SDS011;6875;50.852;5.672;2023-06-14T12:39:20;6.50;;;2.30;;
13607;SDS011;6875;50.852;5.672;2023-06-14T12:41:48;1.73;;;1.60;;
13607;SDS011;6875;50.852;5.672;2023-06-14T12:44:15;4.43;;;1.30;;
13607;SDS011;6875;50.852;5.672;2023-06-14T12:46:43;2.57;;;1.60;;
13607;SDS011;6875;50.852;5.672;2023-06-14T12:49:10;2.33;;;1.43;;
13607;SDS011;6875;50.852;5.672;2023-06-14T12:51:39;1.97;;;1.60;;
13607;SDS011;6875;50.852;5.672;2023-06-14T12:54:06;3.03;;;1.33;;
13607;SDS011;6875;50.852;5.672;2023-06-14T12:56:32;3.67;;;1.77;;
13607;SDS011;6875;50.852;5.672;2023-06-14T12:58:59;7.80;;;1.70;;
13607;SDS011;6875;50.852;5.672;2023-06-14T13:01:26;2.23;;;1.70;;
13607;SDS011;6875;50.852;5.672;2023-06-14T13:03:53;2.03;;;1.50;;
13607;SDS011;6875;50.852;5.672;2023-06-14T13:06:20;1.83;;;1.40;;
13607;SDS011;6875;50.852;5.672;2023-06-14T13:08:47;3.33;;;1.47;;
13607;SDS011;6875;50.852;5.672;2023-06-14T13:11:13;2.00;;;1.43;;
13607;SDS011;6875;50.852;5.672;2023-06-14T13:13:40;2.60;;;1.30;;
13607;SDS011;6875;50.852;5.672;2023-06-14T13:16:07;3.47;;;1.50;;
13607;SDS011;6875;50.852;5.672;2023-06-14T13:18:35;4.93;;;1.70;;
13607;SDS011;6875;50.852;5.672;2023-06-14T13:21:06;3.57;;;1.53;;
13607;SDS011;6875;50.852;5.672;2023-06-14T13:23:32;4.83;;;1.40;;
13607;SDS011;6875;50.852;5.672;2023-06-14T13:25:59;2.87;;;1.30;;
13607;SDS011;6875;50.852;5.672;2023-06-14T13:28:25;4.23;;;1.50;;
13607;SDS011;6875;50.852;5.672;2023-06-14T13:30:52;6.67;;;1.70;;
13607;SDS011;6875;50.852;5.672;2023-06-14T13:33:20;3.47;;;1.60;;
13607;SDS011;6875;50.852;5.672;2023-06-14T13:35:49;3.43;;;1.60;;
13607;SDS011;6875;50.852;5.672;2023-06-14T13:38:19;2.47;;;1.40;;
13607;SDS011;6875;50.852;5.672;2023-06-14T13:40:45;3.33;;;1.60;;
13607;SDS011;6875;50.852;5.672;2023-06-14T13:43:12;6.07;;;3.13;;
13607;SDS011;6875;50.852;5.672;2023-06-14T13:45:38;4.13;;;1.77;;
13607;SDS011;6875;50.852;5.672;2023-06-14T13:48:05;4.40;;;1.97;;
13607;SDS011;6875;50.852;5.672;2023-06-14T13:50:32;1.50;;;1.37;;
13607;SDS011;6875;50.852;5.672;2023-06-14T13:52:59;3.63;;;1.80;;
13607;SDS011;6875;50.852;5.672;2023-06-14T13:55:27;2.93;;;1.40;;
13607;SDS011;6875;50.852;5.672;2023-06-14T13:57:53;3.23;;;1.60;;
13607;SDS011;6875;50.852;5.672;2023-06-14T14:00:21;2.87;;;1.50;;
13607;SDS011;6875;50.852;5.672;2023-06-14T14:02:48;4.90;;;1.23;;
13607;SDS011;6875;50.852;5.672;2023-06-14T14:05:16;5.90;;;1.63;;
13607;SDS011;6875;50.852;5.672;2023-06-14T14:07:42;1.43;;;1.27;;
13607;SDS011;6875;50.852;5.672;2023-06-14T14:10:09;2.33;;;1.27;;
13607;SDS011;6875;50.852;5.672;2023-06-14T14:12:39;3.07;;;1.50;;
13607;SDS011;6875;50.852;5.672;2023-06-14T14:15:06;1.77;;;1.10;;
13607;SDS011;6875;50.852;5.672;2023-06-14T14:17:37;1.97;;;1.30;;
13607;SDS011;6875;50.852;5.672;2023-06-14T14:20:04;2.30;;;1.30;;
13607;SDS011;6875;50.852;5.672;2023-06-14T14:22:31;3.27;;;1.20;;
13607;SDS011;6875;50.852;5.672;2023-06-14T14:24:58;4.60;;;1.20;;
13607;SDS011;6875;50.852;5.672;2023-06-14T14:27:25;2.57;;;1.37;;
13607;SDS011;6875;50.852;5.672;2023-06-14T14:29:53;3.90;;;1.20;;
13607;SDS011;6875;50.852;5.672;2023-06-14T14:32:19;5.40;;;3.77;;
13607;SDS011;6875;50.852;5.672;2023-06-14T14:34:46;4.20;;;1.60;;
13607;SDS011;6875;50.852;5.672;2023-06-14T14:37:12;2.20;;;1.30;;
13607;SDS011;6875;50.852;5.672;2023-06-14T14:39:40;4.80;;;1.40;;
13607;SDS011;6875;50.852;5.672;2023-06-14T14:42:07;3.20;;;1.30;;
13607;SDS011;6875;50.852;5.672;2023-06-14T14:44:33;2.93;;;1.00;;
13607;SDS011;6875;50.852;5.672;2023-06-14T14:47:02;3.13;;;1.30;;
13607;SDS011;6875;50.852;5.672;2023-06-14T14:49:29;3.07;;;1.40;;
13607;SDS011;6875;50.852;5.672;2023-06-14T14:51:57;2.87;;;1.30;;
13607;SDS011;6875;50.852;5.672;2023-06-14T14:54:23;1.70;;;0.90;;
13607;SDS011;6875;50.852;5.672;2023-06-14T14:56:50;3.53;;;2.50;;
13607;SDS011;6875;50.852;5.672;2023-06-14T14:59:19;2.07;;;1.30;;
13607;SDS011;6875;50.852;5.672;2023-06-14T15:01:52;1.53;;;1.20;;
13607;SDS011;6875;50.852;5.672;2023-06-14T15:04:24;2.17;;;1.00;;